Time;durP1;ratioP1;P1;durP2;ratioP2;P2;SDS_P1;SDS_P2;PMS_P1;PMS_P2;Temp;Humidity;BMP_temperature;BMP_pressure;BME280_temperature;BME280_humidity;BME280_pressure;Samples;Min_cycle;Max_cycle;Signal;HPM_P1;HPM_P2
2022/02/07 00:01:16;;;;;;;1.20;1.10;;;5.20;99.90;;;;;;2103951;28;20503;-70
2022/02/07 00:02:18;;;;;;;2.67;1.20;;;5.20;99.90;;;;;;2103389;28;20028;-72
2022/02/07 00:04:03;;;;;;;1.40;1.30;;;5.20;99.90;;;;;;2106448;28;20148;-72
2022/02/07 00:04:45;;;;;;;3.67;1.50;;;5.20;99.90;;;;;;2098181;28;20042;-72
2022/02/07 00:05:46;;;;;;;1.50;1.40;;;5.20;99.90;;;;;;2102088;28;20103;-73
2022/02/07 00:06:47;;;;;;;2.47;1.30;;;5.10;99.90;;;;;;2103669;28;20024;-74
2022/02/07 00:07:48;;;;;;;0.70;0.70;;;4.80;99.90;;;;;;2105029;28;20032;-74
2022/02/07 00:08:48;;;;;;;1.20;0.90;;;4.50;99.90;;;;;;2104819;28;20120;-73
2022/02/07 00:09:49;;;;;;;1.08;0.85;;;4.10;99.90;;;;;;2105821;28;20017;-73
2022/02/07 00:10:50;;;;;;;1.05;0.70;;;3.90;99.90;;;;;;2096878;28;20476;-73
2022/02/07 00:11:52;;;;;;;0.70;0.70;;;3.80;99.90;;;;;;2088775;28;20571;-72
2022/02/07 00:12:53;;;;;;;1.48;0.70;;;3.70;99.90;;;;;;2105991;28;20110;-74
2022/02/07 00:13:54;;;;;;;0.80;0.80;;;3.60;99.90;;;;;;2106549;28;20027;-73
2022/02/07 00:14:55;;;;;;;1.50;0.70;;;3.50;99.90;;;;;;2105726;28;20114;-71
2022/02/07 00:15:58;;;;;;;0.80;0.80;;;3.40;99.90;;;;;;2106160;28;20064;-72
2022/02/07 00:16:59;;;;;;;1.90;0.90;;;3.40;99.90;;;;;;2104359;28;20024;-72
2022/02/07 00:18:00;;;;;;;0.70;0.70;;;3.50;99.90;;;;;;2105854;28;20055;-73
2022/02/07 00:19:00;;;;;;;1.85;0.80;;;3.40;99.90;;;;;;2097833;28;20074;-74
2022/02/07 00:20:09;;;;;;;1.52;0.80;;;3.40;99.90;;;;;;2106453;28;20020;-74
2022/02/07 00:21:10;;;;;;;1.00;0.70;;;3.50;99.90;;;;;;2111050;28;20027;-74
2022/02/07 00:22:10;;;;;;;0.85;0.70;;;3.50;99.90;;;;;;2116436;28;20052;-73
2022/02/07 00:23:11;;;;;;;1.02;0.80;;;3.50;99.90;;;;;;2108528;28;20017;-73
2022/02/07 00:24:12;;;;;;;1.02;0.75;;;3.50;99.90;;;;;;2107638;28;20028;-73
2022/02/07 00:25:13;;;;;;;1.00;0.80;;;3.60;99.90;;;;;;2107336;28;20111;-73
2022/02/07 00:26:14;;;;;;;2.35;0.77;;;3.60;99.90;;;;;;2100373;28;20537;-73
2022/02/07 00:27:17;;;;;;;0.80;0.80;;;3.60;99.90;;;;;;2102517;28;20138;-73
2022/02/07 00:28:18;;;;;;;4.07;0.90;;;3.50;99.90;;;;;;2099259;28;20039;-74
2022/02/07 00:29:19;;;;;;;1.38;0.70;;;3.50;99.90;;;;;;2107508;28;20026;-74
2022/02/07 00:30:22;;;;;;;1.63;0.80;;;3.50;99.90;;;;;;2107750;28;20483;-74
2022/02/07 00:31:22;;;;;;;1.58;0.70;;;3.40;99.90;;;;;;2106909;28;20144;-76
2022/02/07 00:32:23;;;;;;;2.95;0.80;;;3.30;99.90;;;;;;2097259;28;20033;-75
2022/02/07 00:33:24;;;;;;;2.17;0.88;;;3.30;99.90;;;;;;2089309;28;20035;-74
2022/02/07 00:34:24;;;;;;;1.30;0.70;;;3.20;99.90;;;;;;2097261;28;20051;-73
2022/02/07 00:35:25;;;;;;;1.38;0.80;;;3.20;99.90;;;;;;2105771;28;20498;-74
2022/02/07 00:36:26;;;;;;;1.05;0.95;;;3.10;99.90;;;;;;2105955;28;20031;-75
2022/02/07 00:37:29;;;;;;;0.70;0.70;;;3.10;99.90;;;;;;2105753;28;20032;-74
2022/02/07 00:38:30;;;;;;;0.77;0.70;;;3.10;99.90;;;;;;2098084;28;20025;-74
2022/02/07 00:39:39;;;;;;;3.00;0.70;;;3.10;99.90;;;;;;2097130;28;20029;-74
2022/02/07 00:40:58;;;;;;;0.95;0.70;;;3.10;99.90;;;;;;2105522;28;20506;-73
2022/02/07 00:42:03;;;;;;;0.70;0.70;;;3.10;99.90;;;;;;2097203;28;20032;-74
2022/02/07 00:43:16;;;;;;;0.80;0.80;;;3.10;99.90;;;;;;2098223;28;20044;-75
2022/02/07 00:44:19;;;;;;;0.80;0.70;;;3.10;99.90;;;;;;2106865;28;20073;-74
2022/02/07 00:45:37;;;;;;;0.80;0.80;;;3.10;99.90;;;;;;2097444;28;20036;-75
2022/02/07 00:46:46;;;;;;;1.10;0.80;;;3.10;99.90;;;;;;2100604;28;20078;-74
2022/02/07 00:47:47;;;;;;;0.82;0.80;;;3.10;99.90;;;;;;2106949;28;20567;-75
2022/02/07 00:48:48;;;;;;;1.90;0.90;;;3.10;99.90;;;;;;2107942;28;20028;-74
2022/02/07 00:49:48;;;;;;;0.88;0.82;;;3.10;99.90;;;;;;2107398;28;20031;-75
2022/02/07 00:50:50;;;;;;;1.80;0.90;;;3.10;99.90;;;;;;2090304;28;20029;-74
2022/02/07 00:51:51;;;;;;;1.20;0.98;;;3.10;99.90;;;;;;2099243;28;20013;-75
2022/02/07 00:52:52;;;;;;;0.93;0.93;;;3.10;99.90;;;;;;2107145;28;20028;-74
2022/02/07 00:53:53;;;;;;;2.10;0.90;;;3.10;99.90;;;;;;2098878;28;20064;-74
2022/02/07 00:54:55;;;;;;;2.50;0.90;;;3.10;99.90;;;;;;2098993;28;20059;-74
2022/02/07 00:55:56;;;;;;;1.63;1.10;;;3.10;99.90;;;;;;2107193;28;20032;-74
2022/02/07 00:56:57;;;;;;;1.20;1.10;;;3.10;99.90;;;;;;2098666;28;20021;-74
2022/02/07 00:57:58;;;;;;;1.30;1.20;;;3.20;99.90;;;;;;2098881;28;20083;-74
2022/02/07 00:58:59;;;;;;;1.75;1.20;;;3.20;99.90;;;;;;2098981;28;20039;-74
2022/02/07 00:59:59;;;;;;;1.50;1.33;;;3.20;99.90;;;;;;2108606;28;20127;-74
2022/02/07 01:01:00;;;;;;;2.13;1.40;;;3.20;99.90;;;;;;2111493;28;20290;-74
2022/02/07 01:02:06;;;;;;;2.97;1.40;;;3.20;99.90;;;;;;2103420;28;20153;-74
2022/02/07 01:03:07;;;;;;;1.55;1.40;;;3.20;99.90;;;;;;2104116;28;20028;-74
2022/02/07 01:04:09;;;;;;;2.55;1.40;;;3.20;99.90;;;;;;2104652;28;20043;-74
2022/02/07 01:05:21;;;;;;;2.95;1.70;;;3.20;99.90;;;;;;2105749;28;20029;-73
2022/02/07 01:06:22;;;;;;;2.17;1.70;;;3.20;99.90;;;;;;2105532;28;20020;-74
2022/02/07 01:07:27;;;;;;;3.88;2.20;;;3.20;99.90;;;;;;2097819;28;20017;-74
2022/02/07 01:08:41;;;;;;;3.15;2.10;;;3.20;99.90;;;;;;2113094;28;20028;-74
2022/02/07 01:09:52;;;;;;;3.78;2.50;;;3.20;99.90;;;;;;2099145;28;20029;-73
2022/02/07 01:11:11;;;;;;;5.25;2.63;;;3.20;99.90;;;;;;2084789;28;20157;-74
2022/02/07 01:13:06;;;;;;;5.35;2.78;;;3.20;99.90;;;;;;2094212;28;20514;-74
2022/02/07 01:14:06;;;;;;;3.58;2.80;;;3.20;99.90;;;;;;2103589;28;20422;-73
2022/02/07 01:16:47;;;;;;;4.82;2.75;;;3.20;99.90;;;;;;2105627;28;20028;-73
2022/02/07 01:18:36;;;;;;;3.63;2.75;;;3.30;99.90;;;;;;2100292;28;20024;-73
2022/02/07 01:21:08;;;;;;;4.60;2.33;;;3.30;99.90;;;;;;2097288;28;20039;-73
2022/02/07 01:52:42;;;;;;;9.40;2.30;;;2.30;99.90;;;;;;2096436;28;20535;-72
2022/02/07 01:55:14;;;;;;;11.45;2.58;;;2.40;99.90;;;;;;2096518;28;20066;-73
2022/02/07 01:56:16;;;;;;;7.30;2.60;;;2.40;99.90;;;;;;2096689;28;20028;-73
2022/02/07 01:57:23;;;;;;;10.68;2.65;;;2.50;99.90;;;;;;2089246;28;20039;-73
2022/02/07 01:58:26;;;;;;;8.93;2.67;;;2.50;99.90;;;;;;2088722;28;20039;-72
2022/02/07 01:59:28;;;;;;;15.05;3.13;;;2.50;99.90;;;;;;2088493;28;20500;-73
2022/02/07 02:00:28;;;;;;;12.43;3.30;;;2.50;99.90;;;;;;2096217;28;20082;-74
2022/02/07 02:01:34;;;;;;;7.28;2.95;;;2.50;99.90;;;;;;2096391;28;20032;-73
2022/02/07 02:02:34;;;;;;;9.98;3.00;;;2.50;99.90;;;;;;2080519;28;20026;-73
2022/02/07 02:03:35;;;;;;;7.88;2.92;;;2.50;99.90;;;;;;2080271;28;20033;-73
2022/02/07 02:04:36;;;;;;;8.88;3.00;;;2.50;99.90;;;;;;2096584;28;20078;-73
2022/02/07 02:05:38;;;;;;;15.50;2.83;;;2.50;99.90;;;;;;2096705;28;20592;-74
2022/02/07 02:06:44;;;;;;;11.68;2.90;;;2.50;99.90;;;;;;2081948;28;20507;-73
2022/02/07 02:07:56;;;;;;;9.45;2.90;;;2.50;99.90;;;;;;2093192;28;20056;-73
2022/02/07 02:08:59;;;;;;;10.23;3.00;;;2.50;99.90;;;;;;2098904;28;20430;-73
2022/02/07 02:10:03;;;;;;;11.55;3.20;;;2.50;99.90;;;;;;2097375;28;20029;-73
2022/02/07 02:11:04;;;;;;;10.35;2.92;;;2.40;99.90;;;;;;2088391;28;20025;-73
2022/02/07 02:12:09;;;;;;;9.75;3.05;;;2.40;99.90;;;;;;2088915;28;20512;-73
2022/02/07 02:13:20;;;;;;;12.15;3.00;;;2.40;99.90;;;;;;2089778;28;20067;-73
2022/02/07 02:34:04;;;;;;;13.85;3.05;;;2.30;99.90;;;;;;2090672;28;20074;-73
2022/02/07 02:37:22;;;;;;;13.00;3.42;;;2.30;99.90;;;;;;2102871;28;20083;-73
2022/02/07 02:39:03;;;;;;;11.02;2.75;;;2.30;99.90;;;;;;2088971;28;20017;-72
2022/02/07 02:45:29;;;;;;;12.95;3.15;;;2.20;99.90;;;;;;2090669;28;20039;-74
2022/02/07 02:46:30;;;;;;;14.60;3.05;;;2.20;99.90;;;;;;2096926;28;20123;-74
2022/02/07 02:47:34;;;;;;;16.52;3.28;;;2.20;99.90;;;;;;2088886;28;20021;-74
2022/02/07 02:48:44;;;;;;;12.82;2.85;;;2.20;99.90;;;;;;2083779;28;20025;-73
2022/02/07 02:49:49;;;;;;;13.63;3.33;;;2.20;99.90;;;;;;2098779;28;20111;-74
2022/02/07 02:50:51;;;;;;;15.50;3.38;;;2.30;99.90;;;;;;2090290;28;20697;-73
2022/02/07 02:51:52;;;;;;;12.25;3.17;;;2.30;99.90;;;;;;2089689;28;20068;-72
2022/02/07 02:52:53;;;;;;;15.23;3.63;;;2.30;99.90;;;;;;2090330;28;20013;-73
2022/02/07 02:53:54;;;;;;;13.98;3.47;;;2.30;99.90;;;;;;2090004;28;20136;-74
2022/02/07 02:54:55;;;;;;;15.07;3.92;;;2.30;99.90;;;;;;2089813;28;20033;-73
2022/02/07 02:55:56;;;;;;;21.55;3.80;;;2.30;99.90;;;;;;2089962;28;20025;-73
2022/02/07 02:57:05;;;;;;;15.50;3.95;;;2.30;99.90;;;;;;2091010;28;20021;-73
2022/02/07 02:58:09;;;;;;;13.20;3.75;;;2.40;99.90;;;;;;2098175;28;20512;-73
2022/02/07 02:59:10;;;;;;;11.13;3.72;;;2.40;99.90;;;;;;2098090;28;20028;-73
2022/02/07 03:00:14;;;;;;;17.60;4.10;;;2.40;99.90;;;;;;2097626;28;20112;-73
2022/02/07 03:01:15;;;;;;;14.77;4.10;;;2.30;99.90;;;;;;2089615;28;20025;-73
2022/02/07 03:02:23;;;;;;;12.65;3.75;;;2.30;99.90;;;;;;2090563;28;20525;-73
2022/02/07 03:03:24;;;;;;;12.95;4.10;;;2.30;99.90;;;;;;2089768;28;20025;-73
2022/02/07 03:04:25;;;;;;;12.75;4.05;;;2.40;99.90;;;;;;2089674;28;20075;-73
2022/02/07 03:05:26;;;;;;;12.57;4.03;;;2.30;99.90;;;;;;2093351;28;20088;-71
2022/02/07 03:06:26;;;;;;;11.48;4.10;;;2.30;99.90;;;;;;2107637;28;20032;-72
2022/02/07 03:07:27;;;;;;;16.15;3.90;;;2.30;99.90;;;;;;2115910;28;20016;-73
2022/02/07 03:08:28;;;;;;;9.57;3.45;;;2.40;99.90;;;;;;2115107;28;20016;-73
2022/02/07 03:09:29;;;;;;;12.88;3.65;;;2.40;99.90;;;;;;2095980;28;20121;-73
2022/02/07 03:11:30;;;;;;;14.27;4.05;;;2.40;99.90;;;;;;2097088;28;20033;-73
2022/02/07 03:12:43;;;;;;;18.67;3.95;;;2.40;99.90;;;;;;2098072;28;20023;-73
2022/02/07 03:13:56;;;;;;;11.75;3.40;;;2.40;99.90;;;;;;2098419;28;20054;-73
2022/02/07 03:16:40;;;;;;;14.52;3.60;;;2.40;99.90;;;;;;2092423;28;20116;-73
2022/02/07 03:17:47;;;;;;;14.95;3.67;;;2.40;99.90;;;;;;2092433;28;20737;-72
2022/02/07 03:18:47;;;;;;;12.73;3.63;;;2.40;99.90;;;;;;2090055;28;20032;-72
2022/02/07 03:19:48;;;;;;;14.02;3.35;;;2.40;99.90;;;;;;2098290;28;20027;-72
2022/02/07 03:20:49;;;;;;;15.00;3.55;;;2.40;99.90;;;;;;2106618;28;20035;-71
2022/02/07 03:21:50;;;;;;;15.30;3.50;;;2.40;99.90;;;;;;2106494;28;20035;-72
2022/02/07 03:22:51;;;;;;;12.77;3.00;;;2.40;99.90;;;;;;2098672;28;20071;-72
2022/02/07 03:23:52;;;;;;;11.13;3.00;;;2.40;99.90;;;;;;2098385;28;20051;-71
2022/02/07 03:24:53;;;;;;;15.68;2.95;;;2.40;99.90;;;;;;2098580;28;20508;-72
2022/02/07 03:25:57;;;;;;;10.20;3.03;;;2.40;99.90;;;;;;2106135;28;20032;-71
2022/02/07 03:26:58;;;;;;;14.93;3.13;;;2.30;99.90;;;;;;2106202;28;20024;-73
2022/02/07 03:28:03;;;;;;;8.70;2.95;;;2.30;99.90;;;;;;2098012;28;20032;-71
2022/02/07 03:29:11;;;;;;;12.05;3.03;;;2.30;99.90;;;;;;2090259;28;20036;-71
2022/02/07 03:30:16;;;;;;;12.18;3.38;;;2.30;99.90;;;;;;2089725;28;20540;-70
2022/02/07 03:31:23;;;;;;;11.98;3.03;;;2.20;99.90;;;;;;2090102;28;20025;-71
2022/02/07 03:32:25;;;;;;;10.25;2.70;;;2.20;99.90;;;;;;2089529;28;20032;-73
2022/02/07 03:33:38;;;;;;;9.07;2.60;;;2.20;99.90;;;;;;2090084;28;20036;-72
2022/02/07 03:34:39;;;;;;;10.68;2.83;;;2.10;99.90;;;;;;2097493;28;20395;-70
2022/02/07 03:35:42;;;;;;;11.00;2.80;;;2.10;99.90;;;;;;2089586;28;20428;-71
2022/02/07 03:36:43;;;;;;;7.00;2.85;;;2.10;99.90;;;;;;2089425;28;20040;-71
2022/02/07 03:37:45;;;;;;;13.40;2.92;;;2.10;99.90;;;;;;2081378;28;20026;-71
2022/02/07 03:38:49;;;;;;;11.40;2.80;;;2.10;99.90;;;;;;2082155;28;20099;-71
2022/02/07 03:39:51;;;;;;;13.88;3.17;;;2.10;99.90;;;;;;2097739;28;20028;-71
2022/02/07 03:40:54;;;;;;;13.73;3.15;;;2.10;99.90;;;;;;2098439;28;20020;-71
2022/02/07 03:41:54;;;;;;;11.15;3.17;;;2.10;99.90;;;;;;2097788;28;20028;-71
2022/02/07 03:42:55;;;;;;;12.80;3.22;;;2.10;99.90;;;;;;2098259;28;20032;-71
2022/02/07 03:43:56;;;;;;;13.45;3.30;;;2.10;99.90;;;;;;2090017;28;20033;-71
2022/02/07 03:44:57;;;;;;;9.52;3.10;;;2.10;99.90;;;;;;2098583;28;20078;-70
2022/02/07 03:46:01;;;;;;;9.00;3.00;;;2.10;99.90;;;;;;2098212;28;20534;-70
2022/02/07 03:47:02;;;;;;;16.08;4.88;;;2.10;99.90;;;;;;2090204;28;20025;-71
2022/02/07 03:48:05;;;;;;;9.20;3.20;;;2.10;99.90;;;;;;2082046;28;20033;-70
2022/02/07 03:49:10;;;;;;;14.75;3.85;;;2.10;99.90;;;;;;2082724;28;20037;-71
2022/02/07 03:50:12;;;;;;;11.30;3.42;;;2.10;99.90;;;;;;2081443;28;20029;-70
2022/02/07 03:51:19;;;;;;;13.70;3.28;;;2.00;99.90;;;;;;2081849;28;20083;-70
2022/02/07 03:52:20;;;;;;;15.00;3.55;;;2.00;99.90;;;;;;2081778;28;20126;-72
2022/02/07 03:53:21;;;;;;;13.40;3.50;;;2.10;99.90;;;;;;2089992;28;20032;-70
2022/02/07 03:54:36;;;;;;;17.02;3.33;;;2.10;99.90;;;;;;2098069;28;20025;-70
2022/02/07 03:55:38;;;;;;;14.18;3.30;;;2.10;99.90;;;;;;2089521;28;20039;-70
2022/02/07 03:56:41;;;;;;;13.57;3.17;;;2.00;99.90;;;;;;2089903;28;20029;-72
2022/02/07 03:57:41;;;;;;;11.55;3.10;;;2.00;99.90;;;;;;2089260;28;20115;-70
2022/02/07 03:58:42;;;;;;;12.23;3.25;;;2.00;99.90;;;;;;2089339;28;20032;-70
2022/02/07 03:59:45;;;;;;;14.23;3.33;;;1.90;99.90;;;;;;2089582;28;20770;-71
2022/02/07 04:00:45;;;;;;;14.10;3.33;;;1.90;99.90;;;;;;2096502;28;20028;-71
2022/02/07 04:02:04;;;;;;;14.00;3.40;;;1.90;99.90;;;;;;2097083;28;20132;-70
2022/02/07 04:03:13;;;;;;;11.93;3.42;;;1.90;99.90;;;;;;2097496;28;20807;-70
2022/02/07 04:04:22;;;;;;;16.58;3.35;;;1.90;99.90;;;;;;2090299;28;20041;-72
2022/02/07 04:06:26;;;;;;;14.10;3.30;;;1.90;99.90;;;;;;2089275;28;20068;-70
2022/02/07 04:07:35;;;;;;;23.42;3.50;;;1.90;99.90;;;;;;2090176;28;20033;-71
2022/02/07 04:08:39;;;;;;;14.50;3.47;;;1.90;99.90;;;;;;2097495;28;20032;-70
2022/02/07 04:09:47;;;;;;;14.88;2.97;;;1.90;99.90;;;;;;2097450;28;20499;-70
2022/02/07 04:11:00;;;;;;;18.88;3.50;;;1.90;99.90;;;;;;2089210;28;20045;-72
2022/02/07 04:12:09;;;;;;;17.13;3.10;;;2.00;99.90;;;;;;2097047;28;20031;-71
2022/02/07 04:13:24;;;;;;;15.95;3.13;;;1.90;99.90;;;;;;2091138;28;20776;-72
2022/02/07 04:14:25;;;;;;;14.60;3.13;;;1.90;99.90;;;;;;2090249;28;20489;-72
2022/02/07 04:15:37;;;;;;;12.15;2.80;;;1.80;99.90;;;;;;2098868;28;20027;-72
2022/02/07 04:16:38;;;;;;;16.70;3.30;;;1.90;99.90;;;;;;2097495;28;20388;-72
2022/02/07 04:17:51;;;;;;;19.92;3.28;;;1.90;99.90;;;;;;2097478;28;20497;-72
2022/02/07 04:20:25;;;;;;;11.90;3.20;;;1.90;99.90;;;;;;2075960;28;20408;-72
2022/02/07 04:21:29;;;;;;;13.68;3.30;;;1.90;99.90;;;;;;2091634;28;20059;-72
2022/02/07 04:22:30;;;;;;;13.32;3.10;;;1.90;99.90;;;;;;2089105;28;20064;-72
2022/02/07 04:23:37;;;;;;;15.27;3.13;;;1.90;99.90;;;;;;2097255;28;20029;-71
2022/02/07 04:24:53;;;;;;;12.02;2.92;;;1.90;99.90;;;;;;2089030;28;20025;-72
2022/02/07 04:25:58;;;;;;;16.75;2.80;;;1.90;99.90;;;;;;2084259;28;20116;-72
2022/02/07 04:26:59;;;;;;;15.95;2.95;;;1.90;99.90;;;;;;2088796;28;20029;-73
2022/02/07 04:28:01;;;;;;;16.98;3.15;;;1.90;99.90;;;;;;2089133;28;20029;-72
2022/02/07 04:29:05;;;;;;;20.90;3.17;;;1.90;99.90;;;;;;2097590;28;20032;-69
2022/02/07 04:30:08;;;;;;;19.27;2.95;;;2.00;99.90;;;;;;2096916;28;20442;-72
2022/02/07 04:31:12;;;;;;;15.18;2.75;;;2.00;99.90;;;;;;2082247;28;20091;-70
2022/02/07 04:32:16;;;;;;;18.23;3.22;;;2.00;99.90;;;;;;2088721;28;20021;-70
2022/02/07 04:33:16;;;;;;;13.77;3.28;;;2.00;99.90;;;;;;2097349;28;20461;-70
2022/02/07 04:34:17;;;;;;;15.20;2.70;;;2.00;99.90;;;;;;2096916;28;20518;-70
2022/02/07 04:35:18;;;;;;;12.52;3.03;;;2.00;99.90;;;;;;2097150;28;20025;-70
2022/02/07 04:36:19;;;;;;;19.08;3.05;;;2.00;99.90;;;;;;2097134;28;20067;-70
2022/02/07 04:37:19;;;;;;;18.27;3.08;;;2.00;99.90;;;;;;2097295;28;20025;-71
2022/02/07 04:38:20;;;;;;;13.70;2.85;;;2.00;99.90;;;;;;2097839;28;20051;-70
2022/02/07 04:39:22;;;;;;;13.25;2.95;;;2.00;99.90;;;;;;2097181;28;20032;-70
2022/02/07 04:40:25;;;;;;;16.15;2.80;;;2.00;99.90;;;;;;2080532;28;20033;-71
2022/02/07 04:41:26;;;;;;;16.10;3.00;;;2.10;99.90;;;;;;2080425;28;20037;-71
2022/02/07 04:42:29;;;;;;;13.27;3.00;;;2.10;99.90;;;;;;2089137;28;20395;-70
2022/02/07 04:43:32;;;;;;;17.40;3.05;;;2.10;99.90;;;;;;2080942;28;20065;-70
2022/02/07 04:44:45;;;;;;;10.75;2.83;;;2.10;99.90;;;;;;2089074;28;20033;-71
2022/02/07 04:45:56;;;;;;;13.95;2.75;;;2.10;99.90;;;;;;2097800;28;20036;-70
2022/02/07 04:51:58;;;;;;;14.93;2.92;;;2.50;99.90;;;;;;2088457;28;20031;-71
2022/02/07 04:55:42;;;;;;;4.60;1.75;;;2.60;99.90;;;;;;2088648;28;20032;-71
2022/02/07 04:58:24;;;;;;;9.30;1.95;;;2.70;99.90;;;;;;2091745;28;20431;-70
2022/02/07 05:00:21;;;;;;;6.88;1.63;;;2.80;99.90;;;;;;2097125;28;20017;-69
2022/02/07 05:01:07;;;;;;;6.78;1.75;;;2.90;99.90;;;;;;2096191;28;20036;-70
2022/02/07 05:02:21;;;;;;;7.05;1.80;;;2.90;99.90;;;;;;2096762;28;20021;-70
2022/02/07 05:03:29;;;;;;;7.68;1.80;;;2.90;99.90;;;;;;2096731;28;20031;-70
2022/02/07 05:04:35;;;;;;;6.65;1.60;;;3.00;99.90;;;;;;2089304;28;20040;-71
2022/02/07 05:14:46;;;;;;;7.60;1.85;;;3.10;99.90;;;;;;2105235;28;20023;-71
2022/02/07 05:15:50;;;;;;;8.25;2.15;;;3.20;99.90;;;;;;2096904;28;20186;-71
2022/02/07 05:16:54;;;;;;;8.52;1.90;;;3.20;99.90;;;;;;2089488;28;20071;-70
2022/02/07 05:18:07;;;;;;;10.07;2.10;;;3.20;99.90;;;;;;2090469;28;20534;-69
2022/02/07 05:19:21;;;;;;;5.22;1.75;;;3.20;99.90;;;;;;2097302;28;20024;-70
2022/02/07 05:20:25;;;;;;;6.57;1.98;;;3.20;99.90;;;;;;2105155;28;20016;-70
2022/02/07 05:21:48;;;;;;;6.75;1.90;;;3.20;99.90;;;;;;2096850;28;20116;-70
2022/02/07 05:23:01;;;;;;;8.23;2.17;;;3.20;99.90;;;;;;2090687;28;20412;-71
2022/02/07 05:24:15;;;;;;;7.55;2.15;;;3.20;99.90;;;;;;2090585;28;20048;-70
2022/02/07 05:25:35;;;;;;;;;;;3.30;99.90;;;;;;2097554;28;20056;-71
2022/02/07 05:26:48;;;;;;;6.88;2.00;;;3.30;99.90;;;;;;2098878;28;20003;-70
2022/02/07 05:28:04;;;;;;;7.47;2.13;;;3.30;99.90;;;;;;2103962;28;20035;-70
2022/02/07 05:29:18;;;;;;;6.93;2.10;;;3.30;99.90;;;;;;2105689;28;20048;-70
2022/02/07 05:30:42;;;;;;;9.38;2.38;;;3.30;99.90;;;;;;2102037;28;20415;-71
2022/02/07 05:31:52;;;;;;;8.27;2.40;;;3.30;99.90;;;;;;2097344;28;20379;-70
2022/02/07 05:33:22;;;;;;;8.30;2.10;;;3.20;99.90;;;;;;2092694;28;20028;-70
2022/02/07 05:35:01;;;;;;;8.23;2.03;;;3.30;99.90;;;;;;2087966;28;20105;-69
2022/02/07 05:36:14;;;;;;;7.75;1.90;;;3.30;99.90;;;;;;2097201;28;20392;-70
2022/02/07 05:37:24;;;;;;;9.52;2.13;;;3.30;99.90;;;;;;2097522;28;20025;-69
2022/02/07 05:39:00;;;;;;;9.52;2.00;;;3.30;99.90;;;;;;2085493;28;20085;-72
2022/02/07 05:40:25;;;;;;;9.27;2.10;;;3.30;99.90;;;;;;2096702;28;20075;-69
2022/02/07 05:41:46;;;;;;;8.05;2.05;;;3.30;99.90;;;;;;2098426;28;20036;-69
2022/02/07 05:43:08;;;;;;;6.65;1.75;;;3.30;99.90;;;;;;2098532;28;20033;-70
2022/02/07 05:44:30;;;;;;;9.77;2.10;;;3.30;99.90;;;;;;2097502;28;20019;-71
2022/02/07 05:46:01;;;;;;;9.52;2.20;;;3.30;99.90;;;;;;2085259;28;20825;-71
2022/02/07 05:47:13;;;;;;;8.38;2.00;;;3.30;99.90;;;;;;2086418;28;20369;-70
2022/02/07 05:48:24;;;;;;;7.65;2.13;;;3.30;99.90;;;;;;2093559;28;20031;-71
2022/02/07 05:49:33;;;;;;;8.15;2.28;;;3.30;99.90;;;;;;2097855;28;20058;-71
2022/02/07 05:50:46;;;;;;;10.82;2.53;;;3.30;99.90;;;;;;2089170;28;20075;-70
2022/02/07 05:51:55;;;;;;;10.48;2.22;;;3.30;99.90;;;;;;2085003;28;20033;-72
2022/02/07 05:53:14;;;;;;;9.20;2.28;;;3.30;99.90;;;;;;2092098;28;20811;-71
2022/02/07 05:54:38;;;;;;;8.18;2.00;;;3.30;99.90;;;;;;2097495;28;20052;-70
2022/02/07 05:55:47;;;;;;;15.05;2.78;;;3.30;99.90;;;;;;2097074;28;20020;-71
2022/02/07 05:56:57;;;;;;;6.55;2.28;;;3.30;99.90;;;;;;2090187;28;20013;-70
2022/02/07 05:58:11;;;;;;;6.70;1.90;;;3.30;99.90;;;;;;2090498;28;20131;-70
2022/02/07 05:59:36;;;;;;;10.30;2.03;;;3.30;99.90;;;;;;2097351;28;20024;-70
2022/02/07 06:00:56;;;;;;;7.97;2.00;;;3.30;99.90;;;;;;2097373;28;20024;-71
2022/02/07 06:01:57;;;;;;;10.05;2.10;;;3.30;99.90;;;;;;2096565;28;20582;-71
2022/02/07 06:03:00;;;;;;;11.35;2.92;;;3.30;99.90;;;;;;2097051;28;20056;-72
2022/02/07 06:04:11;;;;;;;8.20;2.00;;;3.30;99.90;;;;;;2090186;28;20033;-70
2022/02/07 06:05:13;;;;;;;9.70;2.28;;;3.30;99.90;;;;;;2088754;28;20036;-71
2022/02/07 06:06:15;;;;;;;11.63;2.28;;;3.30;99.90;;;;;;2088732;28;20029;-71
2022/02/07 06:07:17;;;;;;;6.28;2.00;;;3.30;99.90;;;;;;2080671;28;20455;-71
2022/02/07 06:08:19;;;;;;;7.18;2.00;;;3.30;99.90;;;;;;2081000;28;20119;-70
2022/02/07 06:09:20;;;;;;;11.48;2.17;;;3.30;99.90;;;;;;2096736;28;20027;-71
2022/02/07 06:10:25;;;;;;;7.38;2.22;;;3.30;99.90;;;;;;2097053;28;20226;-72
2022/02/07 06:11:26;;;;;;;8.82;2.03;;;3.30;99.90;;;;;;2096596;28;20024;-71
2022/02/07 06:12:27;;;;;;;9.88;1.95;;;3.30;99.90;;;;;;2088993;28;20021;-71
2022/02/07 06:13:28;;;;;;;8.05;1.80;;;3.30;99.90;;;;;;2088903;28;20107;-70
2022/02/07 06:14:36;;;;;;;6.65;2.00;;;3.30;99.90;;;;;;2089659;28;20025;-71
2022/02/07 06:15:37;;;;;;;5.65;1.90;;;3.30;99.90;;;;;;2088410;28;20108;-70
2022/02/07 06:16:38;;;;;;;8.48;2.10;;;3.30;99.90;;;;;;2096617;28;20033;-71
2022/02/07 06:17:40;;;;;;;7.47;1.95;;;3.30;99.90;;;;;;2088183;28;20070;-71
2022/02/07 06:18:41;;;;;;;4.70;1.60;;;3.30;99.90;;;;;;2088288;28;20563;-73
2022/02/07 06:19:42;;;;;;;10.32;1.83;;;3.30;99.90;;;;;;2096510;28;20032;-71
2022/02/07 06:20:43;;;;;;;8.77;2.33;;;3.30;99.90;;;;;;2096736;28;20016;-71
2022/02/07 06:21:44;;;;;;;9.05;2.20;;;3.30;99.90;;;;;;2095966;28;20845;-71
2022/02/07 06:22:47;;;;;;;10.70;2.42;;;3.30;99.90;;;;;;2096582;28;20025;-71
2022/02/07 06:23:49;;;;;;;6.78;2.38;;;3.30;99.90;;;;;;2095927;28;20503;-71
2022/02/07 06:24:53;;;;;;;8.55;2.60;;;3.30;99.90;;;;;;2088512;28;20017;-71
2022/02/07 06:25:57;;;;;;;6.68;1.98;;;3.30;99.90;;;;;;2096680;28;20028;-71
2022/02/07 06:27:00;;;;;;;5.60;2.10;;;3.30;99.90;;;;;;2089098;28;20136;-71
2022/02/07 06:28:02;;;;;;;8.50;2.10;;;3.30;99.90;;;;;;2080041;28;20030;-72
2022/02/07 06:29:16;;;;;;;7.28;1.92;;;3.30;99.90;;;;;;2081949;28;20033;-69
2022/02/07 06:30:22;;;;;;;9.55;2.10;;;3.20;99.90;;;;;;2082839;28;20025;-71
2022/02/07 06:31:25;;;;;;;10.55;2.13;;;3.20;99.90;;;;;;2088041;28;20022;-72
2022/02/07 06:32:27;;;;;;;8.52;2.05;;;3.20;99.90;;;;;;2087848;28;20032;-71
2022/02/07 06:33:32;;;;;;;6.18;1.80;;;3.20;99.90;;;;;;2088607;28;20040;-70
2022/02/07 06:34:34;;;;;;;9.40;2.10;;;3.20;99.90;;;;;;2096144;28;20108;-69
2022/02/07 06:35:36;;;;;;;9.93;2.20;;;3.20;99.90;;;;;;2088438;28;20029;-69
2022/02/07 06:36:37;;;;;;;7.82;1.90;;;3.20;99.90;;;;;;2088125;28;20033;-70
2022/02/07 06:37:38;;;;;;;9.82;2.10;;;3.20;99.90;;;;;;2096564;28;20040;-71
2022/02/07 06:38:42;;;;;;;9.65;2.00;;;3.20;99.90;;;;;;2097110;28;20032;-71
2022/02/07 06:39:43;;;;;;;8.95;1.73;;;3.20;99.90;;;;;;2096596;28;20028;-72
2022/02/07 06:40:44;;;;;;;9.15;2.10;;;3.30;99.90;;;;;;2087974;28;20028;-70
2022/02/07 06:41:47;;;;;;;8.73;2.00;;;3.20;99.90;;;;;;2088477;28;20079;-70
2022/02/07 06:42:48;;;;;;;6.68;2.00;;;3.20;99.90;;;;;;2097655;28;20020;-70
2022/02/07 06:43:48;;;;;;;7.45;1.83;;;3.30;99.90;;;;;;2089216;28;20484;-70
2022/02/07 06:44:50;;;;;;;9.60;2.00;;;3.30;99.90;;;;;;2088715;28;20444;-72
2022/02/07 06:45:50;;;;;;;7.00;1.90;;;3.30;99.90;;;;;;2096837;28;20042;-70
2022/02/07 06:46:52;;;;;;;9.48;2.20;;;3.30;99.90;;;;;;2105269;28;20078;-70
2022/02/07 06:47:53;;;;;;;7.50;2.03;;;3.30;99.90;;;;;;2097124;28;20031;-68
2022/02/07 06:48:54;;;;;;;7.88;1.80;;;3.30;99.90;;;;;;2088491;28;20032;-72
2022/02/07 06:49:55;;;;;;;8.93;2.20;;;3.30;99.90;;;;;;2088233;28;20036;-70
2022/02/07 06:50:55;;;;;;;7.93;2.25;;;3.30;99.90;;;;;;2096111;28;20168;-70
2022/02/07 06:51:56;;;;;;;6.85;2.25;;;3.30;99.90;;;;;;2096150;28;20032;-71
2022/02/07 06:52:57;;;;;;;9.05;2.10;;;3.30;99.90;;;;;;2088433;28;20029;-70
2022/02/07 06:53:58;;;;;;;8.15;1.90;;;3.30;99.90;;;;;;2080333;28;20034;-70
2022/02/07 06:55:00;;;;;;;8.68;2.45;;;3.30;99.90;;;;;;2072303;28;20464;-71
2022/02/07 06:56:05;;;;;;;8.88;2.00;;;3.30;99.90;;;;;;2080615;28;20037;-71
2022/02/07 06:57:09;;;;;;;6.70;2.10;;;3.30;99.90;;;;;;2089480;28;20029;-71
2022/02/07 06:58:10;;;;;;;8.10;1.90;;;3.30;99.90;;;;;;2088136;28;20032;-71
2022/02/07 06:59:16;;;;;;;7.78;2.00;;;3.30;99.90;;;;;;2080064;28;20513;-71
2022/02/07 07:00:18;;;;;;;6.70;1.70;;;3.30;99.90;;;;;;2088915;28;20021;-72
2022/02/07 07:01:19;;;;;;;8.70;1.85;;;3.30;99.90;;;;;;2096425;28;20040;-71
2022/02/07 07:02:25;;;;;;;9.48;1.90;;;3.30;99.90;;;;;;2095863;28;20041;-70
2022/02/07 07:03:31;;;;;;;7.72;1.55;;;3.30;99.90;;;;;;2097380;28;20506;-72
2022/02/07 07:04:32;;;;;;;6.38;1.90;;;3.20;99.90;;;;;;2096520;28;20063;-71
2022/02/07 07:05:36;;;;;;;9.25;2.08;;;3.20;99.90;;;;;;2088767;28;20040;-70
2022/02/07 07:06:38;;;;;;;11.35;2.10;;;3.20;99.90;;;;;;2096336;28;20028;-70
2022/02/07 07:07:40;;;;;;;6.63;1.80;;;3.10;99.90;;;;;;2097094;28;20446;-70
2022/02/07 07:08:47;;;;;;;8.73;2.30;;;3.10;99.90;;;;;;2096640;28;20515;-70
2022/02/07 07:09:48;;;;;;;7.45;2.00;;;3.10;99.90;;;;;;2097530;28;20416;-70
2022/02/07 07:10:49;;;;;;;6.50;1.90;;;3.10;99.90;;;;;;2095208;28;20033;-71